Time;durP1;ratioP1;P1;durP2;ratioP2;P2;SDS_P1;SDS_P2;PMS_P1;PMS_P2;Temp;Humidity;BMP_temperature;BMP_pressure;BME280_temperature;BME280_humidity;BME280_pressure;Samples;Min_cycle;Max_cycle;Signal;HPM_P1;HPM_P2
2022/03/10 00:00:39;;;;;;;34.63;19.70;;;;;;;-2.00;100.00;160055.63;5074135;28;20039;-63
2022/03/10 00:03:04;;;;;;;31.80;23.48;;;;;;;-2.03;100.00;160047.56;5072068;28;20419;-63
2022/03/10 00:05:30;;;;;;;28.60;20.08;;;;;;;-2.04;100.00;160044.88;5074627;28;20047;-63
2022/03/10 00:07:55;;;;;;;30.90;21.98;;;;;;;-2.05;100.00;160042.25;5070163;28;20491;-64
2022/03/10 00:10:20;;;;;;;34.22;22.80;;;;;;;-2.05;100.00;160042.25;5073174;28;20072;-65
2022/03/10 00:12:47;;;;;;;31.65;21.40;;;;;;;-2.12;100.00;160024.84;5072163;28;20565;-64
2022/03/10 00:15:13;;;;;;;25.77;22.85;;;;;;;-2.17;100.00;160010.13;5074129;28;20383;-64
2022/03/10 00:17:38;;;;;;;33.03;23.17;;;;;;;-2.22;100.00;159996.75;5071947;28;20044;-64
2022/03/10 00:20:04;;;;;;;35.25;23.98;;;;;;;-2.19;100.00;160004.75;5073406;28;20526;-63
2022/03/10 00:22:30;;;;;;;31.02;20.40;;;;;;;-2.15;100.00;160015.47;5072377;28;20131;-63
2022/03/10 00:24:55;;;;;;;25.80;20.35;;;;;;;-2.12;100.00;160024.84;5073607;28;20024;-63
2022/03/10 00:27:20;;;;;;;37.33;21.42;;;;;;;-2.09;100.00;160031.53;5072089;28;20055;-63
2022/03/10 00:29:46;;;;;;;27.25;21.83;;;;;;;-2.03;100.00;160047.56;5073715;28;20514;-63
2022/03/10 00:32:11;;;;;;;30.95;21.92;;;;;;;-2.01;100.00;160052.94;5071228;28;20055;-63
2022/03/10 00:34:37;;;;;;;30.38;21.27;;;;;;;-2.02;100.00;160050.25;5073944;28;20017;-63
2022/03/10 00:37:02;;;;;;;32.40;22.65;;;;;;;-2.03;100.00;160047.56;5071699;28;20385;-64
2022/03/10 00:39:28;;;;;;;44.47;27.10;;;;;;;-1.98;100.00;160061.00;5073388;28;20029;-64
2022/03/10 00:41:53;;;;;;;30.15;23.98;;;;;;;-1.97;100.00;160063.63;5072149;28;20040;-63
2022/03/10 00:44:18;;;;;;;30.92;21.77;;;;;;;-1.95;100.00;160069.00;5072415;28;20033;-64
2022/03/10 00:46:44;;;;;;;35.08;21.40;;;;;;;-1.95;100.00;160069.00;5071968;28;20044;-64
2022/03/10 00:49:09;;;;;;;28.67;23.42;;;;;;;-1.93;100.00;160074.34;5073167;28;20025;-63
2022/03/10 00:51:35;;;;;;;35.83;23.35;;;;;;;-1.95;100.00;160067.69;5071893;28;20032;-63
2022/03/10 00:54:00;;;;;;;32.75;24.30;;;;;;;-1.99;100.00;160058.31;5072905;28;20028;-64
2022/03/10 00:56:25;;;;;;;27.80;21.95;;;;;;;-2.01;100.00;160052.94;5071905;28;20032;-64
2022/03/10 00:58:50;;;;;;;28.73;21.75;;;;;;;-2.02;100.00;160050.25;5072922;28;20520;-63
2022/03/10 01:01:16;;;;;;;29.13;22.77;;;;;;;-2.01;100.00;160052.94;5070923;28;20028;-64
2022/03/10 01:03:41;;;;;;;35.28;22.38;;;;;;;-2.00;100.00;160055.63;5073061;28;20039;-63
2022/03/10 01:06:07;;;;;;;32.03;23.27;;;;;;;-1.95;100.00;160067.69;5071870;28;20032;-64
2022/03/10 01:08:32;;;;;;;33.08;23.63;;;;;;;-1.98;100.00;160061.00;5071327;28;20040;-63
2022/03/10 01:10:57;;;;;;;31.40;23.27;;;;;;;-1.97;100.00;160063.63;5072732;28;20031;-63
2022/03/10 01:13:23;;;;;;;28.95;21.73;;;;;;;-2.00;100.00;160055.63;5071338;28;20124;-63
2022/03/10 01:15:49;;;;;;;32.33;23.65;;;;;;;-2.01;100.00;160051.63;5072298;28;20104;-63
2022/03/10 01:18:14;;;;;;;28.90;21.00;;;;;;;-2.00;100.00;160054.25;5071390;28;20404;-63
2022/03/10 01:20:40;;;;;;;31.23;21.17;;;;;;;-1.98;100.00;160061.00;5072951;28;20066;-62
2022/03/10 01:23:06;;;;;;;31.48;20.77;;;;;;;-1.95;100.00;160069.00;5070342;28;20080;-63
2022/03/10 01:25:31;;;;;;;25.02;19.27;;;;;;;-1.85;100.00;160093.09;5072841;28;20028;-63
2022/03/10 01:27:56;;;;;;;39.28;20.27;;;;;;;-1.85;100.00;160093.09;5071210;28;20518;-61
2022/03/10 01:30:22;;;;;;;30.45;21.70;;;;;;;-1.91;100.00;160078.34;5071670;28;20028;-61
2022/03/10 01:32:47;;;;;;;30.45;20.35;;;;;;;-1.90;100.00;160079.72;5070630;28;20036;-61
2022/03/10 01:35:14;;;;;;;27.27;20.17;;;;;;;-1.95;100.00;160069.00;5072242;28;20021;-61
2022/03/10 01:37:40;;;;;;;27.08;20.38;;;;;;;-1.96;100.00;160066.31;5071164;28;20067;-61
2022/03/10 01:40:11;;;;;;;25.50;19.90;;;;;;;-1.96;100.00;160065.00;5072192;28;20047;-61
2022/03/10 01:42:37;;;;;;;35.15;18.83;;;;;;;-1.99;100.00;160058.31;5071150;28;20053;-60
2022/03/10 01:45:03;;;;;;;26.05;18.65;;;;;;;-1.79;100.00;160109.13;5072165;28;20399;-61
2022/03/10 01:47:29;;;;;;;29.50;21.45;;;;;;;-1.81;100.00;160103.78;5070045;28;20036;-61
2022/03/10 01:49:54;;;;;;;25.30;20.42;;;;;;;-1.77;100.00;160114.50;5072451;28;20406;-61
2022/03/10 01:52:20;;;;;;;31.40;20.13;;;;;;;-1.70;100.00;160133.25;5070505;28;20040;-61
2022/03/10 01:54:46;;;;;;;33.90;20.30;;;;;;;-1.63;100.00;160151.97;5071862;28;20472;-61
2022/03/10 01:57:12;;;;;;;25.92;19.80;;;;;;;-1.62;100.00;160154.66;5070270;28;20075;-61
2022/03/10 01:59:38;;;;;;;25.38;18.83;;;;;;;-1.67;100.00;160139.94;5071888;28;20060;-62
2022/03/10 02:02:04;;;;;;;26.73;20.40;;;;;;;-1.75;100.00;160119.88;5069721;28;20044;-65
2022/03/10 02:04:29;;;;;;;25.25;19.90;;;;;;;-1.75;100.00;160119.88;5072063;28;20035;-62
2022/03/10 02:06:55;;;;;;;23.35;19.13;;;;;;;-1.85;100.00;160093.09;5070633;28;20043;-62
2022/03/10 02:12:05;;;;;;;29.48;20.60;;;;;;;-1.91;100.00;160078.34;5069745;28;20040;-64
2022/03/10 02:17:21;;;;;;;25.40;19.50;;;;;;;-2.01;100.00;160052.94;5070071;28;20403;-63
2022/03/10 02:19:51;;;;;;;27.70;18.17;;;;;;;-2.06;100.00;160039.56;5071880;28;20028;-64
2022/03/10 02:22:17;;;;;;;27.15;20.00;;;;;;;-2.08;100.00;160035.53;5069606;28;20033;-64
2022/03/10 02:24:44;;;;;;;28.35;19.90;;;;;;;-2.05;100.00;160040.91;5071559;28;20031;-64
2022/03/10 02:27:13;;;;;;;29.83;21.52;;;;;;;-2.04;100.00;160044.88;5069471;28;20427;-64
2022/03/10 02:29:40;;;;;;;32.03;20.42;;;;;;;-1.99;100.00;160058.31;5071289;28;20044;-64
2022/03/10 02:32:06;;;;;;;27.65;21.25;;;;;;;-1.99;100.00;160058.31;5069620;28;20507;-64
2022/03/10 02:34:31;;;;;;;29.52;20.15;;;;;;;-1.99;100.00;160056.94;5071604;28;20032;-64
2022/03/10 02:36:56;;;;;;;24.63;18.65;;;;;;;-2.01;100.00;160052.94;5069774;28;20407;-63
2022/03/10 02:39:22;;;;;;;28.30;19.08;;;;;;;-2.05;100.00;160042.25;5070964;28;20035;-61
2022/03/10 02:41:47;;;;;;;29.45;20.45;;;;;;;-2.04;100.00;160044.88;5069849;28;20028;-61
2022/03/10 02:44:12;;;;;;;27.42;20.38;;;;;;;-2.08;100.00;160035.53;5070514;28;20029;-61
2022/03/10 02:46:38;;;;;;;24.70;20.20;;;;;;;-2.08;100.00;160034.22;5069008;28;20423;-61
2022/03/10 02:49:03;;;;;;;26.90;19.08;;;;;;;-2.11;100.00;160026.16;5070910;28;20098;-61
2022/03/10 02:51:28;;;;;;;26.83;18.90;;;;;;;-2.11;100.00;160026.16;5069692;28;20040;-61
2022/03/10 02:53:54;;;;;;;25.27;19.75;;;;;;;-2.08;100.00;160034.22;5070428;28;20029;-61
2022/03/10 02:56:19;;;;;;;26.77;20.00;;;;;;;-2.09;100.00;160031.53;5069596;28;20035;-61
2022/03/10 02:58:44;;;;;;;31.05;19.85;;;;;;;-2.08;100.00;160034.22;5071147;28;20101;-61
2022/03/10 03:01:10;;;;;;;30.75;20.48;;;;;;;-2.09;100.00;160032.91;5069077;28;20033;-62
2022/03/10 03:03:36;;;;;;;32.60;21.60;;;;;;;-2.08;100.00;160034.22;5071107;28;20024;-64
2022/03/10 03:06:01;;;;;;;28.05;20.30;;;;;;;-2.07;100.00;160036.91;5070750;28;20100;-66
2022/03/10 03:08:26;;;;;;;28.52;18.48;;;;;;;-2.08;100.00;160034.22;5069300;28;20036;-64
2022/03/10 03:10:52;;;;;;;24.40;19.52;;;;;;;-2.08;100.00;160034.22;5070818;28;20028;-64
2022/03/10 03:13:17;;;;;;;26.55;18.73;;;;;;;-2.07;100.00;160038.22;5069285;28;20042;-65
2022/03/10 03:15:42;;;;;;;28.25;21.38;;;;;;;-2.10;100.00;160028.84;5070467;28;20028;-64
2022/03/10 03:18:08;;;;;;;28.95;22.20;;;;;;;-2.20;100.00;160002.13;5069654;28;20044;-64
2022/03/10 03:20:33;;;;;;;22.40;18.23;;;;;;;-2.31;100.00;159974.03;5070832;28;20029;-64
2022/03/10 03:22:58;;;;;;;24.95;18.33;;;;;;;-2.37;100.00;159959.28;5068526;28;20094;-64
2022/03/10 03:25:24;;;;;;;31.08;20.95;;;;;;;-2.34;100.00;159967.28;5070986;28;20460;-64
2022/03/10 03:27:49;;;;;;;32.53;20.98;;;;;;;-2.34;100.00;159967.28;5069572;28;20044;-64
2022/03/10 03:30:16;;;;;;;27.15;19.45;;;;;;;-2.45;100.00;159937.88;5070100;28;20430;-64
2022/03/10 03:32:41;;;;;;;31.23;19.90;;;;;;;-2.16;100.00;160014.13;5069488;28;20036;-64
2022/03/10 03:35:06;;;;;;;24.05;18.15;;;;;;;-2.18;100.00;160007.44;5070594;28;20036;-64
2022/03/10 03:37:32;;;;;;;27.88;19.60;;;;;;;-2.28;100.00;159983.38;5068805;28;20047;-65
2022/03/10 03:39:57;;;;;;;29.10;21.45;;;;;;;-2.35;100.00;159964.66;5070186;28;20032;-64
2022/03/10 03:42:23;;;;;;;25.35;18.25;;;;;;;-2.37;100.00;159959.28;5069461;28;20037;-65
2022/03/10 03:44:48;;;;;;;32.72;22.42;;;;;;;-2.38;100.00;159956.63;5070511;28;20023;-65
2022/03/10 03:47:13;;;;;;;30.48;20.83;;;;;;;-2.40;100.00;159951.25;5069291;28;20041;-65
2022/03/10 03:49:39;;;;;;;28.52;20.45;;;;;;;-2.42;100.00;159945.94;5070113;28;20035;-64
2022/03/10 03:52:04;;;;;;;25.42;20.70;;;;;;;-2.47;100.00;159932.53;5068552;28;20044;-65
2022/03/10 03:54:30;;;;;;;40.20;20.80;;;;;;;-2.53;100.00;159917.81;5070366;28;20052;-65
2022/03/10 03:56:55;;;;;;;32.85;21.08;;;;;;;-2.63;100.00;159891.06;5069232;28;20048;-66
2022/03/10 03:59:20;;;;;;;29.83;20.92;;;;;;;-2.67;100.00;159881.72;5050022;28;20041;-66
2022/03/10 04:01:46;;;;;;;33.60;21.00;;;;;;;-2.71;100.00;159871.00;5048989;28;20037;-66
2022/03/10 04:04:11;;;;;;;28.90;19.60;;;;;;;-2.78;100.00;159852.28;5050253;28;20074;-65
2022/03/10 04:06:37;;;;;;;24.83;20.13;;;;;;;-2.79;100.00;159849.63;5048831;28;20184;-65
2022/03/10 04:09:02;;;;;;;28.73;19.55;;;;;;;-2.81;100.00;159844.28;5050177;28;20032;-66
2022/03/10 04:11:29;;;;;;;30.85;22.35;;;;;;;-2.87;100.00;159830.88;5048526;28;20110;-66
2022/03/10 04:13:54;;;;;;;31.40;21.35;;;;;;;-2.84;100.00;159836.22;5049720;28;20035;-66
2022/03/10 04:16:20;;;;;;;30.40;20.13;;;;;;;-2.87;100.00;159830.88;5048308;28;20033;-66
2022/03/10 04:18:45;;;;;;;27.60;20.88;;;;;;;-2.89;100.00;159825.56;5052592;28;20040;-65
2022/03/10 04:21:11;;;;;;;42.08;21.40;;;;;;;-2.91;100.00;159820.19;5051790;28;20086;-65
2022/03/10 04:23:36;;;;;;;30.65;20.58;;;;;;;-2.94;100.00;159812.16;5054376;28;20053;-65
2022/03/10 04:26:02;;;;;;;25.05;19.67;;;;;;;-2.98;100.00;159801.47;5053740;28;20029;-65
2022/03/10 04:28:27;;;;;;;26.17;18.23;;;;;;;-3.03;100.00;159788.13;5051936;28;20484;-66
2022/03/10 04:30:52;;;;;;;37.10;22.42;;;;;;;-3.14;100.00;159758.69;5053932;28;20020;-65
2022/03/10 04:33:18;;;;;;;26.58;19.35;;;;;;;-3.17;100.00;159750.69;5051827;28;20075;-66
2022/03/10 04:35:44;;;;;;;31.42;23.02;;;;;;;-3.23;100.00;159737.28;5053470;28;20033;-66
2022/03/10 04:38:10;;;;;;;39.75;21.77;;;;;;;-3.26;100.00;159729.28;5052033;28;20125;-66
2022/03/10 04:40:37;;;;;;;34.05;21.77;;;;;;;-3.28;100.00;159723.94;5053231;28;20032;-66
2022/03/10 04:43:02;;;;;;;28.45;20.27;;;;;;;-3.27;100.00;159726.63;5051659;28;20041;-66
2022/03/10 04:45:28;;;;;;;44.28;26.77;;;;;;;-3.26;100.00;159727.94;5053168;28;20503;-66
2022/03/10 04:47:53;;;;;;;39.08;25.70;;;;;;;-3.27;100.00;159726.63;5052251;28;20454;-66
2022/03/10 04:50:19;;;;;;;115.07;51.70;;;;;;;-3.24;100.00;159734.59;5052700;28;20428;-66
2022/03/10 04:52:44;;;;;;;87.45;46.83;;;;;;;-3.22;100.00;159739.97;5051447;28;20056;-63
2022/03/10 04:55:11;;;;;;;104.75;53.42;;;;;;;-3.22;100.00;159739.97;5053240;28;20033;-63
2022/03/10 04:57:36;;;;;;;115.35;55.70;;;;;;;-3.22;100.00;159739.97;5057377;28;20052;-63
2022/03/10 05:00:10;;;;;;;81.90;41.80;;;;;;;-3.15;100.00;159756.00;5072972;28;20041;-63
2022/03/10 05:02:39;;;;;;;78.32;41.70;;;;;;;-3.16;100.00;159753.38;5071588;28;20045;-63
2022/03/10 05:05:05;;;;;;;;;;;;;;;-3.16;100.00;159754.69;5073329;28;20449;-63
2022/03/10 05:07:31;;;;;;;61.58;33.78;;;;;;;-3.16;100.00;159753.38;5071800;28;19912;-63
2022/03/10 05:09:56;;;;;;;85.18;43.65;;;;;;;-3.17;100.00;159750.69;5072986;28;20521;-63
2022/03/10 05:12:21;;;;;;;59.33;31.83;;;;;;;-3.14;100.00;159758.69;5070961;28;20423;-64
2022/03/10 05:14:47;;;;;;;46.50;25.83;;;;;;;-3.16;100.00;159753.38;5072418;28;20028;-64
2022/03/10 05:17:12;;;;;;;40.78;26.10;;;;;;;-3.20;100.00;159745.31;5071539;28;20510;-64
2022/03/10 05:19:37;;;;;;;39.55;23.27;;;;;;;-3.23;100.00;159737.28;5073017;28;20380;-64
2022/03/10 05:22:03;;;;;;;34.13;25.00;;;;;;;-3.23;100.00;159737.28;5070298;28;20040;-64
2022/03/10 05:24:28;;;;;;;37.47;21.42;;;;;;;-3.23;100.00;159737.28;5073079;28;20111;-67
2022/03/10 05:26:54;;;;;;;29.45;22.05;;;;;;;-3.20;100.00;159745.31;5070605;28;20036;-67
2022/03/10 05:29:19;;;;;;;49.83;26.95;;;;;;;-3.16;100.00;159753.38;5071985;28;20086;-67
2022/03/10 05:31:44;;;;;;;111.45;51.65;;;;;;;-3.16;100.00;159753.38;5071104;28;20415;-67
2022/03/10 05:34:10;;;;;;;38.83;26.10;;;;;;;-3.13;100.00;159761.34;5072298;28;20495;-67
2022/03/10 05:36:36;;;;;;;46.80;28.85;;;;;;;-3.19;100.00;159748.00;5070860;28;20041;-67
2022/03/10 05:39:02;;;;;;;74.85;43.22;;;;;;;-3.24;100.00;159734.59;5072231;28;20070;-67
2022/03/10 05:41:29;;;;;;;38.53;26.35;;;;;;;-3.32;100.00;159711.91;5070803;28;20036;-66
2022/03/10 05:43:55;;;;;;;49.92;27.00;;;;;;;-3.38;100.00;159697.19;5072018;28;20025;-67
2022/03/10 05:46:20;;;;;;;78.13;40.33;;;;;;;-3.45;100.00;159678.47;5067744;28;20035;-65
2022/03/10 05:48:45;;;;;;;95.85;46.85;;;;;;;-3.49;100.00;159667.78;5062895;28;20020;-64
2022/03/10 05:51:11;;;;;;;48.65;29.58;;;;;;;-3.53;100.00;159658.44;5059633;28;20029;-64
2022/03/10 05:53:36;;;;;;;92.88;47.03;;;;;;;-3.55;100.00;159654.44;5061725;28;20013;-64
2022/03/10 05:56:01;;;;;;;65.80;34.00;;;;;;;-3.58;100.00;159646.41;5062282;28;20048;-64
2022/03/10 05:58:27;;;;;;;51.80;29.48;;;;;;;-3.60;100.00;159641.03;5058692;28;20053;-64
2022/03/10 06:00:53;;;;;;;61.30;33.80;;;;;;;-3.60;100.00;159641.03;5061675;28;20392;-64
2022/03/10 06:03:20;;;;;;;38.95;25.92;;;;;;;-3.59;100.00;159643.72;5060553;28;20040;-64
2022/03/10 06:05:45;;;;;;;53.15;30.83;;;;;;;-3.60;100.00;159641.03;5067568;28;20025;-64
2022/03/10 06:08:10;;;;;;;35.67;22.33;;;;;;;-3.59;100.00;159643.72;5069826;28;20473;-64
2022/03/10 06:10:36;;;;;;;33.92;23.02;;;;;;;-3.59;100.00;159643.72;5065255;28;20033;-64
2022/03/10 06:13:01;;;;;;;36.38;23.38;;;;;;;-3.57;100.00;159649.09;5060184;28;20503;-64
2022/03/10 06:15:27;;;;;;;30.00;21.48;;;;;;;-3.55;100.00;159653.09;5064659;28;20029;-64
2022/03/10 06:17:52;;;;;;;36.25;22.25;;;;;;;-3.51;100.00;159665.13;5058275;28;20044;-65
2022/03/10 06:20:17;;;;;;;44.65;25.30;;;;;;;-3.47;100.00;159674.47;5063804;28;20090;-64
2022/03/10 06:22:43;;;;;;;35.67;21.88;;;;;;;-3.43;100.00;159683.81;5062671;28;20036;-61
2022/03/10 06:25:09;;;;;;;31.80;23.27;;;;;;;-3.42;100.00;159686.50;5065844;28;20016;-62
2022/03/10 06:27:35;;;;;;;39.30;20.98;;;;;;;-3.40;100.00;159693.19;5065273;28;20541;-62
2022/03/10 06:30:01;;;;;;;46.17;28.45;;;;;;;-3.38;100.00;159698.53;5069160;28;20036;-61
2022/03/10 06:32:26;;;;;;;42.55;24.88;;;;;;;-3.36;100.00;159702.53;5064430;28;20037;-62
2022/03/10 06:34:54;;;;;;;45.40;28.48;;;;;;;-3.30;100.00;159718.56;5069468;28;20055;-62
2022/03/10 06:37:20;;;;;;;34.63;22.17;;;;;;;-3.24;100.00;159733.28;5061557;28;20041;-62
2022/03/10 06:39:45;;;;;;;40.53;25.73;;;;;;;-3.17;100.00;159750.69;5067204;28;20030;-62
2022/03/10 06:42:11;;;;;;;34.45;21.52;;;;;;;-3.07;100.00;159777.41;5061537;28;20518;-62
2022/03/10 06:44:37;;;;;;;39.35;26.00;;;;;;;-2.99;100.00;159798.78;5063201;28;20532;-62
2022/03/10 06:47:06;;;;;;;43.88;27.33;;;;;;;-2.91;100.00;159820.19;5063394;28;20048;-63
2022/03/10 06:49:32;;;;;;;43.33;26.00;;;;;;;-2.80;100.00;159846.97;5063637;28;20025;-58
2022/03/10 06:51:57;;;;;;;41.08;30.58;;;;;;;-2.70;100.00;159873.66;5061841;28;20048;-58
2022/03/10 06:54:23;;;;;;;28.70;20.17;;;;;;;-2.58;100.00;159904.44;5066883;28;20037;-58
2022/03/10 06:56:48;;;;;;;33.45;22.02;;;;;;;-2.46;100.00;159935.22;5060415;28;20036;-58
2022/03/10 06:59:13;;;;;;;51.42;23.95;;;;;;;-2.31;100.00;159975.34;5069224;28;20044;-59
2022/03/10 07:01:40;;;;;;;36.22;22.27;;;;;;;-2.16;100.00;160012.81;5069574;28;20511;-59
2022/03/10 07:04:05;;;;;;;32.70;23.17;;;;;;;-1.99;100.00;160058.31;5069705;28;20031;-59
2022/03/10 07:06:31;;;;;;;30.33;22.42;;;;;;;-1.86;100.00;160090.41;5068269;28;20471;-59
2022/03/10 07:08:56;;;;;;;29.10;20.77;;;;;;;-1.79;100.00;160110.47;5070503;28;20039;-59
2022/03/10 07:11:23;;;;;;;29.45;20.58;;;;;;;-1.67;100.00;160141.25;5068162;28;20522;-58
2022/03/10 07:13:48;;;;;;;34.70;21.52;;;;;;;-1.51;100.00;160182.78;5070643;28;20030;-59
2022/03/10 07:16:14;;;;;;;29.77;21.40;;;;;;;-1.31;100.00;160233.63;5068870;28;20036;-58
2022/03/10 07:18:39;;;;;;;37.83;19.80;;;;;;;-0.99;100.00;160317.97;5069969;28;20081;-59
2022/03/10 07:21:04;;;;;;;29.85;19.40;;;;;;;-0.70;100.00;160392.97;5069689;28;20055;-58
2022/03/10 07:23:33;;;;;;;30.40;20.60;;;;;;;-0.54;100.00;160434.50;5067727;28;20060;-58
2022/03/10 07:25:59;;;;;;;25.45;18.75;;;;;;;-0.35;100.00;160482.72;5069996;28;20189;-59
2022/03/10 07:28:25;;;;;;;27.52;21.23;;;;;;;-0.14;100.00;160537.66;5066908;28;20044;-59
2022/03/10 07:30:51;;;;;;;26.42;21.13;;;;;;;0.05;100.00;160587.25;5069261;28;20029;-59
2022/03/10 07:33:16;;;;;;;23.27;18.33;;;;;;;0.21;100.00;160627.47;5067701;28;20044;-59
2022/03/10 07:35:42;;;;;;;23.15;16.50;;;;;;;0.56;100.00;160719.91;5070672;28;20028;-59
2022/03/10 07:38:10;;;;;;;23.05;16.65;;;;;;;0.94;100.00;160819.16;5068578;28;20113;-59
2022/03/10 07:40:35;;;;;;;22.17;16.48;;;;;;;1.31;100.00;160913.03;5070065;28;20435;-60
2022/03/10 07:43:02;;;;;;;21.25;15.95;;;;;;;1.67;100.00;161008.28;5068317;28;20079;-59
2022/03/10 07:45:27;;;;;;;27.45;15.82;;;;;;;2.00;100.00;161092.81;5069418;28;20388;-59
2022/03/10 07:47:53;;;;;;;23.38;15.85;;;;;;;2.31;100.00;161173.34;5067901;28;20055;-59
2022/03/10 07:50:18;;;;;;;21.00;16.23;;;;;;;2.63;100.00;161256.59;5069551;28;21572;-59
2022/03/10 07:52:43;;;;;;;19.77;15.60;;;;;;;2.93;100.00;161334.50;5070079;28;20388;-62
2022/03/10 07:55:13;;;;;;;23.05;15.60;;;;;;;3.27;100.00;161423.09;5073939;28;20115;-58
2022/03/10 07:57:38;;;;;;;21.60;14.02;;;;;;;3.56;100.00;161499.69;5070475;28;20143;-59
2022/03/10 08:00:04;;;;;;;22.00;17.13;;;;;;;3.88;100.00;161581.66;5073610;28;20044;-59
2022/03/10 08:02:30;;;;;;;19.88;14.43;;;;;;;4.24;100.00;161675.72;5072342;28;20048;-59
2022/03/10 08:04:55;;;;;;;18.55;14.80;;;;;;;4.70;100.00;161795.34;5068905;28;20029;-59
2022/03/10 08:07:20;;;;;;;19.08;16.52;;;;;;;5.21;100.00;161928.50;5069401;28;20044;-60
2022/03/10 08:09:46;;;;;;;26.23;16.27;;;;;;;5.80;100.00;162081.88;5073105;28;20016;-59
2022/03/10 08:12:11;;;;;;;19.90;14.70;;;;;;;6.65;100.00;162304.00;5072007;28;20056;-59
2022/03/10 08:14:36;;;;;;;20.55;14.38;;;;;;;7.29;100.00;162472.34;5073669;28;20048;-60
2022/03/10 08:17:02;;;;;;;25.27;14.30;;;;;;;8.26;100.00;162724.31;5071879;28;20051;-60
2022/03/10 08:19:27;;;;;;;24.63;16.90;;;;;;;9.13;100.00;162950.84;5073390;28;20021;-57
2022/03/10 08:21:52;;;;;;;14.90;13.23;;;;;;;9.69;100.00;163099.19;5072433;28;20041;-57
2022/03/10 08:24:18;;;;;;;20.23;14.90;;;;;;;10.20;100.00;163230.06;5073169;28;20031;-57
2022/03/10 08:26:43;;;;;;;22.27;14.63;;;;;;;10.53;95.96;163316.53;5063680;28;20067;-57
2022/03/10 08:29:09;;;;;;;16.98;11.68;;;;;;;11.08;93.05;163462.28;5065411;28;20383;-57
2022/03/10 08:31:34;;;;;;;19.17;13.70;;;;;;;11.20;92.26;163492.03;5071343;28;20040;-57
2022/03/10 08:34:00;;;;;;;20.05;14.13;;;;;;;11.25;92.54;163505.50;5066328;28;20032;-57
2022/03/10 08:36:25;;;;;;;17.27;13.95;;;;;;;11.50;88.24;163571.69;5070642;28;20032;-57
2022/03/10 08:38:50;;;;;;;18.35;13.48;;;;;;;12.00;84.04;163701.38;5072923;28;20028;-57
2022/03/10 08:41:16;;;;;;;15.30;11.48;;;;;;;12.58;83.87;163854.09;5070704;28;20043;-57
2022/03/10 08:43:41;;;;;;;18.85;14.07;;;;;;;12.77;82.36;163902.75;5073706;28;20029;-59
2022/03/10 08:46:07;;;;;;;17.90;13.65;;;;;;;13.29;77.61;164039.28;5072617;28;20044;-58
2022/03/10 08:48:34;;;;;;;18.45;12.10;;;;;;;13.02;74.13;163970.31;5071413;28;20052;-57
2022/03/10 08:51:03;;;;;;;22.25;14.10;;;;;;;13.06;70.46;163978.47;5072375;28;20369;-57
2022/03/10 08:53:29;;;;;;;18.50;13.60;;;;;;;13.23;68.84;164024.38;5068224;28;20079;-57
2022/03/10 08:55:54;;;;;;;18.13;12.70;;;;;;;13.04;66.50;163974.38;5072262;28;20031;-57
2022/03/10 08:58:20;;;;;;;15.52;11.65;;;;;;;13.40;67.62;164069.09;5070603;28;20049;-57
2022/03/10 09:00:45;;;;;;;20.05;13.70;;;;;;;14.07;67.24;164243.53;5072678;28;20021;-57
2022/03/10 09:03:11;;;;;;;14.18;12.68;;;;;;;14.25;65.41;164292.25;5071256;28;20036;-57
2022/03/10 09:05:37;;;;;;;17.40;13.30;;;;;;;13.75;61.17;164159.66;5072660;28;20032;-56
2022/03/10 09:08:03;;;;;;;14.35;12.60;;;;;;;13.24;58.83;164025.78;5070429;28;20098;-57
2022/03/10 09:10:28;;;;;;;17.40;12.70;;;;;;;13.69;62.02;164143.44;5072886;28;20078;-58
2022/03/10 09:12:54;;;;;;;15.93;14.30;;;;;;;13.71;60.63;164148.84;5071339;28;20458;-57
2022/03/10 09:15:21;;;;;;;21.58;13.77;;;;;;;13.84;58.59;164184.00;5071930;28;20029;-57
2022/03/10 09:17:46;;;;;;;19.13;14.93;;;;;;;13.83;58.23;164181.31;5069983;28;20161;-56
2022/03/10 09:20:13;;;;;;;15.68;12.88;;;;;;;14.10;58.78;164253.00;5071863;28;20034;-57
2022/03/10 09:22:39;;;;;;;19.08;13.40;;;;;;;14.20;57.22;164278.69;5071240;28;20538;-57
2022/03/10 09:25:08;;;;;;;15.23;12.57;;;;;;;14.00;55.59;164224.59;5072008;28;20021;-56
2022/03/10 09:27:36;;;;;;;25.45;14.23;;;;;;;14.43;58.26;164338.22;5071030;28;20557;-57
2022/03/10 09:30:03;;;;;;;20.05;15.43;;;;;;;14.78;57.49;164430.25;5072246;28;20016;-57
2022/03/10 09:32:43;;;;;;;18.80;15.48;;;;;;;14.72;59.38;164414.03;5070540;28;20400;-57
2022/03/10 09:35:10;;;;;;;19.10;16.83;;;;;;;14.18;54.13;164273.31;5051789;28;20033;-57
2022/03/10 09:37:36;;;;;;;19.67;15.63;;;;;;;14.24;54.88;164289.53;5058782;28;20447;-57
2022/03/10 09:40:03;;;;;;;19.77;14.70;;;;;;;13.66;53.54;164135.34;5069484;28;20032;-57
2022/03/10 09:42:30;;;;;;;22.90;16.63;;;;;;;13.20;54.38;164014.94;5071040;28;20036;-57
2022/03/10 09:45:01;;;;;;;21.50;16.83;;;;;;;13.64;58.61;164132.63;5072580;28;20029;-57
2022/03/10 09:47:27;;;;;;;22.08;15.40;;;;;;;14.05;56.85;164238.09;5069717;28;20567;-57
2022/03/10 09:49:53;;;;;;;17.67;14.25;;;;;;;14.00;56.23;164224.59;5072680;28;20025;-57
2022/03/10 09:52:19;;;;;;;22.17;15.65;;;;;;;14.12;55.65;164257.03;5070411;28;20041;-57
2022/03/10 09:54:45;;;;;;;22.17;15.32;;;;;;;14.07;56.07;164243.53;5071578;28;20361;-57
2022/03/10 09:57:13;;;;;;;18.85;14.52;;;;;;;14.11;58.39;164254.38;5070479;28;20068;-57
2022/03/10 09:59:55;;;;;;;20.17;15.23;;;;;;;14.06;55.56;164240.81;5071914;28;20039;-57
2022/03/10 10:02:20;;;;;;;16.50;14.75;;;;;;;13.92;54.28;164205.66;5070362;28;20078;-56
2022/03/10 10:04:48;;;;;;;25.85;16.33;;;;;;;14.01;57.56;164227.31;5072073;28;20020;-57
2022/03/10 10:07:14;;;;;;;22.95;17.10;;;;;;;14.18;55.38;164273.31;5069767;28;20037;-56
2022/03/10 10:09:42;;;;;;;19.70;16.25;;;;;;;14.40;53.54;164330.13;5070285;28;20024;-57
2022/03/10 10:12:09;;;;;;;21.73;16.13;;;;;;;14.89;55.55;164460.06;5070021;28;20553;-57
2022/03/10 10:14:43;;;;;;;24.40;17.67;;;;;;;15.84;58.55;164709.19;5070904;28;20475;-57
2022/03/10 10:17:09;;;;;;;23.52;17.10;;;;;;;16.24;54.90;164812.09;5068918;28;20047;-57
2022/03/10 10:19:36;;;;;;;21.90;15.20;;;;;;;16.64;57.49;164917.78;5071267;28;20020;-57
2022/03/10 10:22:12;;;;;;;22.45;16.98;;;;;;;16.48;55.10;164875.75;5069754;28;20051;-57
2022/03/10 10:24:37;;;;;;;23.38;17.40;;;;;;;16.01;56.45;164752.53;5063607;28;20031;-57
2022/03/10 10:27:33;;;;;;;21.48;16.05;;;;;;;15.43;53.62;164600.84;5063074;28;20049;-57
2022/03/10 10:30:01;;;;;;;21.05;15.55;;;;;;;15.17;56.77;164533.13;5067651;28;20053;-57
2022/03/10 10:32:33;;;;;;;25.83;18.50;;;;;;;15.44;54.60;164603.56;5069644;28;20052;-57
2022/03/10 10:35:06;;;;;;;19.13;15.65;;;;;;;15.20;53.73;164539.88;5071113;28;20445;-57
2022/03/10 10:37:32;;;;;;;24.70;17.50;;;;;;;15.59;53.29;164641.47;5069804;28;20187;-57
2022/03/10 10:39:58;;;;;;;20.20;15.10;;;;;;;15.97;53.93;164743.03;5070457;28;20024;-57
2022/03/10 10:42:29;;;;;;;23.88;17.40;;;;;;;16.08;51.51;164770.16;5059576;28;20041;-57
2022/03/10 10:44:55;;;;;;;25.25;17.73;;;;;;;16.04;52.48;164760.66;5060933;28;20112;-57
2022/03/10 10:47:20;;;;;;;23.35;17.10;;;;;;;16.59;53.38;164905.59;5068709;28;20071;-57
2022/03/10 10:49:58;;;;;;;26.20;19.80;;;;;;;16.77;52.21;164951.59;5071027;28;20472;-57
2022/03/10 10:52:24;;;;;;;23.40;16.30;;;;;;;17.08;51.97;165034.34;5069729;28;20130;-57
2022/03/10 10:55:03;;;;;;;19.60;17.05;;;;;;;17.32;51.22;165095.31;5070874;28;20387;-58
2022/03/10 10:57:34;;;;;;;18.60;15.52;;;;;;;17.04;48.99;165022.16;5069294;28;20053;-57
2022/03/10 11:00:09;;;;;;;25.45;18.05;;;;;;;16.42;48.79;164859.50;5070632;28;20104;-57
2022/03/10 11:02:36;;;;;;;23.73;19.58;;;;;;;16.46;50.05;164871.72;5069504;28;20530;-57
2022/03/10 11:05:03;;;;;;;25.05;19.23;;;;;;;16.58;49.68;164901.47;5070769;28;20433;-57